createdAt,value
2017-05-30T00:01:13.498Z,5.04
2017-05-30T00:03:41.806Z,6.24
2017-05-30T00:06:10.156Z,5.96
2017-05-30T00:08:38.482Z,6.02
2017-05-30T00:11:06.781Z,5.12
2017-05-30T00:13:35.119Z,5.98
2017-05-30T00:16:03.419Z,6.48
2017-05-30T00:18:31.721Z,5.90
2017-05-30T00:21:00.058Z,5.54
2017-05-30T00:23:28.361Z,7.34
2017-05-30T00:25:56.696Z,5.40
2017-05-30T00:28:25.041Z,7.62
2017-05-30T00:30:53.353Z,5.80
2017-05-30T00:33:21.663Z,4.74
2017-05-30T00:35:50.020Z,5.48
2017-05-30T00:38:18.370Z,5.10
2017-05-30T00:40:46.757Z,5.84
2017-05-30T00:43:15.225Z,6.72
2017-05-30T00:45:43.522Z,5.26
2017-05-30T00:48:11.825Z,5.76
2017-05-30T00:50:40.198Z,5.84
2017-05-30T00:53:08.510Z,5.96
2017-05-30T00:55:36.811Z,6.30
2017-05-30T00:58:05.151Z,5.98
2017-05-30T01:00:34.221Z,5.38
2017-05-30T01:03:03.313Z,5.24
2017-05-30T01:05:31.607Z,6.90
2017-05-30T01:07:59.961Z,6.28
2017-05-30T01:10:29.136Z,6.34
2017-05-30T01:12:57.826Z,5.78
2017-05-30T01:15:26.165Z,7.74
2017-05-30T01:17:54.480Z,7.08
2017-05-30T01:20:23.570Z,6.92
2017-05-30T01:22:51.910Z,6.14
2017-05-30T01:25:20.201Z,6.90
2017-05-30T01:27:48.533Z,6.22
2017-05-30T01:30:16.873Z,6.70
2017-05-30T01:32:45.187Z,5.72
2017-05-30T01:35:13.522Z,6.54
2017-05-30T01:37:41.858Z,6.14
2017-05-30T01:40:10.157Z,6.34
2017-05-30T01:42:38.454Z,5.60
2017-05-30T01:45:07.570Z,5.96
2017-05-30T01:47:35.874Z,5.78
2017-05-30T01:50:04.232Z,5.66
2017-05-30T01:52:32.602Z,6.52
2017-05-30T01:55:00.897Z,6.66
2017-05-30T01:57:29.200Z,7.26
2017-05-30T01:59:57.553Z,6.98
2017-05-30T02:02:25.872Z,6.58
2017-05-30T02:04:54.174Z,5.80
2017-05-30T02:07:22.522Z,6.06
2017-05-30T02:09:50.833Z,6.80
2017-05-30T02:12:19.135Z,8.44
2017-05-30T02:14:47.530Z,8.06
2017-05-30T02:17:15.835Z,6.28
2017-05-30T02:19:44.139Z,6.66
2017-05-30T02:22:12.481Z,6.22
2017-05-30T02:24:40.782Z,5.82
2017-05-30T02:27:09.081Z,5.72
2017-05-30T02:29:37.425Z,5.48
2017-05-30T02:32:05.719Z,5.90
2017-05-30T02:34:34.021Z,5.18
2017-05-30T02:37:02.374Z,5.14
2017-05-30T02:39:31.447Z,5.20
2017-05-30T02:41:59.741Z,6.24
2017-05-30T02:44:28.088Z,5.12
2017-05-30T02:46:56.406Z,5.38
2017-05-30T02:49:24.701Z,6.22
2017-05-30T02:51:53.046Z,5.40
2017-05-30T02:54:21.397Z,7.62
2017-05-30T02:56:49.755Z,5.64
2017-05-30T02:59:18.103Z,4.82
2017-05-30T03:01:46.408Z,5.64
2017-05-30T03:04:14.706Z,4.76
2017-05-30T03:06:43.065Z,5.86
2017-05-30T03:09:11.361Z,5.10
2017-05-30T03:11:39.657Z,6.20
2017-05-30T03:14:07.990Z,6.32
2017-05-30T03:16:36.290Z,4.78
2017-05-30T03:19:04.597Z,5.04
2017-05-30T03:21:32.939Z,6.18
2017-05-30T03:24:01.245Z,5.62
2017-05-30T03:26:29.546Z,5.48
2017-05-30T03:28:57.891Z,4.46
2017-05-30T03:31:26.189Z,5.40
2017-05-30T03:33:54.485Z,4.90
2017-05-30T03:36:23.115Z,7.42
2017-05-30T03:38:51.421Z,4.58
2017-05-30T03:41:19.721Z,5.68
2017-05-30T03:43:48.883Z,5.08
2017-05-30T03:46:17.146Z,5.50
2017-05-30T03:48:45.454Z,4.74
2017-05-30T03:51:14.571Z,5.10
2017-05-30T03:53:42.873Z,4.96
2017-05-30T03:56:11.178Z,7.10
2017-05-30T03:58:39.513Z,4.50
2017-05-30T04:01:07.826Z,4.54
2017-05-30T04:03:36.130Z,5.18
2017-05-30T04:06:04.469Z,5.36
2017-05-30T04:08:32.769Z,6.00
2017-05-30T04:11:01.067Z,4.52
2017-05-30T04:13:29.442Z,5.76
2017-05-30T04:15:57.808Z,5.46
2017-05-30T04:18:26.253Z,5.40
2017-05-30T04:20:54.565Z,5.50
2017-05-30T04:23:22.871Z,4.86
2017-05-30T04:25:51.941Z,4.94
2017-05-30T04:28:20.273Z,5.00
2017-05-30T04:30:48.577Z,5.88
2017-05-30T04:35:38.595Z,4.10
2017-05-30T04:38:06.904Z,5.02
2017-05-30T04:40:35.209Z,5.90
2017-05-30T04:43:03.542Z,8.20
2017-05-30T04:45:31.836Z,5.52
2017-05-30T04:48:00.143Z,6.92
2017-05-30T04:50:28.484Z,5.80
2017-05-30T04:52:56.782Z,5.04
2017-05-30T04:55:25.091Z,5.30
2017-05-30T04:57:53.455Z,8.86
2017-05-30T05:00:21.826Z,4.92
2017-05-30T05:02:50.166Z,5.38
2017-05-30T05:05:18.510Z,5.20
2017-05-30T05:07:46.828Z,5.10
2017-05-30T05:10:15.193Z,5.20
2017-05-30T05:12:43.492Z,4.94
2017-05-30T05:15:11.797Z,4.60
2017-05-30T05:17:40.148Z,4.80
2017-05-30T05:20:08.565Z,5.84
2017-05-30T05:22:36.864Z,6.24
2017-05-30T05:25:05.203Z,6.88
2017-05-30T05:27:33.517Z,4.56
2017-05-30T05:30:02.425Z,7.20
2017-05-30T05:32:31.317Z,4.90
2017-05-30T05:34:59.632Z,4.06
2017-05-30T05:37:27.938Z,4.06
2017-05-30T05:39:56.281Z,3.70
2017-05-30T05:42:24.617Z,3.78
2017-05-30T05:44:53.836Z,4.36
2017-05-30T05:47:22.933Z,4.70
2017-05-30T05:49:51.233Z,3.30
2017-05-30T05:52:19.528Z,5.28
2017-05-30T05:54:47.897Z,3.16
2017-05-30T05:57:17.009Z,3.50
2017-05-30T05:59:45.305Z,5.36
2017-05-30T06:02:13.647Z,3.50
2017-05-30T06:04:41.946Z,3.52
2017-05-30T06:07:10.241Z,5.30
2017-05-30T06:09:38.680Z,4.12
2017-05-30T06:12:06.989Z,3.70
2017-05-30T06:14:35.290Z,3.84
2017-05-30T06:17:03.642Z,4.30
2017-05-30T06:19:32.010Z,5.26
2017-05-30T06:22:00.304Z,3.58
2017-05-30T06:24:29.407Z,3.70
2017-05-30T06:26:57.797Z,3.98
2017-05-30T06:29:26.094Z,4.04
2017-05-30T06:31:54.425Z,4.42
2017-05-30T06:34:22.756Z,6.98
2017-05-30T06:36:51.091Z,4.84
2017-05-30T06:39:19.398Z,6.58
2017-05-30T06:41:47.696Z,8.54
2017-05-30T06:44:16.815Z,16.50
2017-05-30T06:46:45.129Z,19.40
2017-05-30T06:49:13.437Z,27.30
2017-05-30T06:51:41.794Z,25.50
2017-05-30T06:54:10.099Z,22.58
2017-05-30T06:56:38.442Z,20.18
2017-05-30T06:59:06.889Z,13.74
2017-05-30T07:01:35.195Z,14.76
2017-05-30T07:04:03.500Z,14.62
2017-05-30T07:06:31.957Z,11.92
2017-05-30T07:09:00.265Z,15.96
2017-05-30T07:11:28.574Z,11.90
2017-05-30T07:13:56.913Z,9.60
2017-05-30T07:16:25.276Z,11.34
2017-05-30T07:18:53.581Z,11.64
2017-05-30T07:21:22.698Z,10.06
2017-05-30T07:23:50.997Z,12.18
2017-05-30T07:26:20.066Z,9.82
2017-05-30T07:28:48.432Z,12.38
2017-05-30T07:31:16.739Z,9.48
2017-05-30T07:33:45.056Z,10.30
2017-05-30T07:36:13.395Z,10.30
2017-05-30T07:38:41.713Z,13.10
2017-05-30T07:41:10.025Z,13.16
2017-05-30T07:43:38.380Z,12.42
2017-05-30T07:46:06.687Z,11.24
2017-05-30T07:48:35.003Z,11.54
2017-05-30T07:51:04.133Z,10.66
2017-05-30T07:53:32.446Z,14.40
2017-05-30T07:56:00.758Z,11.90
2017-05-30T07:58:29.113Z,14.62
2017-05-30T08:00:57.422Z,13.36
2017-05-30T08:03:25.830Z,12.64
2017-05-30T08:05:54.191Z,13.98
2017-05-30T08:08:22.516Z,12.20
2017-05-30T08:10:50.823Z,12.18
2017-05-30T08:13:19.177Z,11.42
2017-05-30T08:15:47.508Z,11.88
2017-05-30T08:18:15.817Z,14.20
2017-05-30T08:20:44.200Z,15.36
2017-05-30T08:23:12.535Z,16.78
2017-05-30T08:25:40.845Z,13.20
2017-05-30T08:28:09.189Z,16.34
2017-05-30T08:30:37.495Z,15.00
2017-05-30T08:33:05.816Z,12.54
2017-05-30T08:35:34.178Z,17.14
2017-05-30T08:38:02.481Z,18.62
2017-05-30T08:40:30.790Z,15.68
2017-05-30T08:42:59.941Z,17.50
2017-05-30T08:45:28.251Z,15.86
2017-05-30T08:47:56.564Z,15.48
2017-05-30T08:50:25.174Z,13.50
2017-05-30T08:52:53.502Z,12.08
2017-05-30T08:55:21.822Z,11.70
2017-05-30T08:57:50.188Z,12.82
2017-05-30T09:00:18.501Z,17.26
2017-05-30T09:02:46.812Z,15.32
2017-05-30T09:05:15.937Z,13.98
2017-05-30T09:07:44.245Z,13.54
2017-05-30T09:10:12.553Z,17.30
2017-05-30T09:12:40.915Z,13.94
2017-05-30T09:15:09.241Z,13.02
2017-05-30T09:17:37.563Z,14.72
2017-05-30T09:20:05.922Z,11.50
2017-05-30T09:22:34.227Z,14.06
2017-05-30T09:25:02.538Z,15.72
2017-05-30T09:27:30.885Z,11.78
2017-05-30T09:29:59.193Z,12.48
2017-05-30T09:32:27.773Z,12.06
2017-05-30T09:34:56.127Z,14.98
2017-05-30T09:37:24.435Z,10.80
2017-05-30T09:39:52.742Z,12.56
2017-05-30T09:42:21.103Z,15.00
2017-05-30T09:44:49.442Z,21.16
2017-05-30T09:47:17.754Z,14.92
2017-05-30T09:49:46.943Z,15.18
2017-05-30T09:52:15.264Z,16.74
2017-05-30T09:54:43.609Z,16.12
2017-05-30T09:57:11.962Z,14.32
2017-05-30T09:59:40.357Z,17.04
2017-05-30T10:02:08.661Z,14.42
2017-05-30T10:04:37.015Z,13.32
2017-05-30T10:07:05.338Z,12.42
2017-05-30T10:09:33.655Z,18.72
2017-05-30T10:12:02.010Z,15.66
2017-05-30T10:14:30.317Z,16.44
2017-05-30T10:16:59.389Z,14.16
2017-05-30T10:19:27.738Z,12.06
2017-05-30T10:21:56.049Z,13.52
2017-05-30T10:24:24.366Z,13.98
2017-05-30T10:26:52.741Z,12.32
2017-05-30T10:29:21.055Z,16.00
2017-05-30T10:31:50.145Z,13.98
2017-05-30T10:34:18.493Z,14.94
2017-05-30T10:36:46.803Z,14.66
2017-05-30T10:39:15.109Z,16.86
2017-05-30T10:41:43.456Z,12.44
2017-05-30T10:44:11.758Z,15.22
2017-05-30T10:46:40.066Z,12.14
2017-05-30T10:49:08.421Z,12.06
2017-05-30T10:51:36.721Z,10.00
2017-05-30T10:54:05.028Z,12.68
2017-05-30T10:56:33.379Z,9.36
2017-05-30T10:59:01.706Z,10.30
2017-05-30T11:01:30.010Z,9.80
2017-05-30T11:03:58.354Z,12.18
2017-05-30T11:06:26.660Z,9.28
2017-05-30T11:08:54.963Z,10.92
2017-05-30T11:11:23.314Z,7.66
2017-05-30T11:13:51.619Z,8.00
2017-05-30T11:16:19.923Z,6.66
2017-05-30T11:18:49.030Z,6.42
2017-05-30T11:21:17.326Z,5.58
2017-05-30T11:23:45.641Z,5.02
2017-05-30T11:26:13.987Z,5.58
2017-05-30T11:28:42.282Z,6.34
2017-05-30T11:31:10.578Z,6.42
2017-05-30T11:33:38.917Z,6.18
2017-05-30T11:36:07.213Z,8.68
2017-05-30T11:38:35.515Z,9.50
2017-05-30T11:41:03.862Z,13.52
2017-05-30T11:43:32.169Z,25.74
2017-05-30T11:46:00.482Z,3.90
2017-05-30T11:48:29.178Z,6.40
2017-05-30T11:50:57.481Z,5.48
2017-05-30T11:53:25.782Z,12.08
2017-05-30T11:55:54.129Z,6.14
2017-05-30T11:58:22.437Z,5.50
2017-05-30T12:00:50.739Z,5.72
2017-05-30T12:03:19.868Z,7.82
2017-05-30T12:05:48.169Z,6.98
2017-05-30T12:08:16.470Z,5.18
2017-05-30T12:10:44.817Z,5.04
2017-05-30T12:13:13.117Z,5.78
2017-05-30T12:15:41.429Z,12.82
2017-05-30T12:18:09.779Z,8.08
2017-05-30T12:20:38.082Z,6.62
2017-05-30T12:23:06.390Z,10.18
2017-05-30T12:25:35.539Z,7.54
2017-05-30T12:28:03.869Z,8.56
2017-05-30T12:30:32.175Z,9.10
2017-05-30T12:33:01.287Z,10.10
2017-05-30T12:35:29.589Z,8.16
2017-05-30T12:37:57.888Z,9.16
2017-05-30T12:40:26.237Z,12.06
2017-05-30T12:42:54.541Z,12.90
2017-05-30T12:45:22.846Z,16.94
2017-05-30T12:47:51.193Z,8.84
2017-05-30T12:50:19.507Z,13.04
2017-05-30T12:52:47.820Z,9.64
2017-05-30T12:55:16.965Z,12.68
2017-05-30T12:57:45.276Z,14.02
2017-05-30T13:00:13.589Z,11.06
2017-05-30T13:02:41.957Z,9.04
2017-05-30T13:05:10.262Z,9.42
2017-05-30T13:07:38.573Z,10.04
2017-05-30T13:10:06.922Z,10.28
2017-05-30T13:12:35.221Z,8.60
2017-05-30T13:15:03.534Z,8.92
2017-05-30T13:17:31.873Z,8.56
2017-05-30T13:20:00.178Z,8.40
2017-05-30T13:22:28.481Z,9.86
2017-05-30T13:24:56.823Z,10.80
2017-05-30T13:27:25.126Z,8.76
2017-05-30T13:29:53.436Z,9.72
2017-05-30T13:32:22.549Z,8.88
2017-05-30T13:34:50.854Z,7.48
2017-05-30T13:37:19.158Z,7.40
2017-05-30T13:39:47.505Z,7.12
2017-05-30T13:42:15.844Z,8.16
2017-05-30T13:44:44.145Z,7.52
2017-05-30T13:47:12.526Z,10.38
2017-05-30T13:49:40.829Z,7.88
2017-05-30T13:52:09.149Z,7.68
2017-05-30T13:54:38.340Z,6.30
2017-05-30T13:57:06.641Z,7.68
2017-05-30T13:59:34.933Z,7.16
2017-05-30T14:02:03.278Z,5.76
2017-05-30T14:04:31.757Z,7.24
2017-05-30T14:07:00.060Z,7.82
2017-05-30T14:09:28.412Z,6.74
2017-05-30T14:11:56.738Z,6.92
2017-05-30T14:14:25.042Z,7.46
2017-05-30T14:16:53.386Z,5.90
2017-05-30T14:19:21.822Z,7.10
2017-05-30T14:21:50.898Z,6.04
2017-05-30T14:24:19.205Z,4.30
2017-05-30T14:26:47.553Z,5.48
2017-05-30T14:29:15.854Z,5.60
2017-05-30T14:31:44.185Z,6.34
2017-05-30T14:34:12.522Z,5.92
2017-05-30T14:36:40.827Z,6.08
2017-05-30T14:39:09.130Z,5.62
2017-05-30T14:41:38.251Z,6.30
2017-05-30T14:44:06.558Z,8.66
2017-05-30T14:46:34.873Z,5.64
2017-05-30T14:49:03.977Z,6.76
2017-05-30T14:51:32.281Z,7.16
2017-05-30T14:54:00.586Z,7.60
2017-05-30T14:56:29.709Z,6.64
2017-05-30T14:58:58.030Z,7.46
2017-05-30T15:01:27.101Z,8.02
2017-05-30T15:03:55.509Z,7.16
2017-05-30T15:06:23.817Z,7.72
2017-05-30T15:08:52.122Z,10.06
2017-05-30T15:11:20.461Z,7.36
2017-05-30T15:13:48.770Z,8.48
2017-05-30T15:16:17.078Z,9.16
2017-05-30T15:18:45.433Z,9.54
2017-05-30T15:21:13.749Z,7.12
2017-05-30T15:23:42.057Z,8.24
2017-05-30T15:26:10.440Z,8.64
2017-05-30T15:28:38.758Z,9.20
2017-05-30T15:31:07.082Z,8.44
2017-05-30T15:33:35.421Z,8.34
2017-05-30T15:36:03.724Z,7.54
2017-05-30T15:38:32.026Z,6.06
2017-05-30T15:41:01.130Z,8.12
2017-05-30T15:43:30.194Z,9.48
2017-05-30T15:45:58.496Z,9.32
2017-05-30T15:48:26.850Z,7.50
2017-05-30T15:50:55.157Z,6.76
2017-05-30T15:53:24.234Z,7.88
2017-05-30T15:55:52.571Z,7.62
2017-05-30T15:58:20.897Z,6.54
2017-05-30T16:00:49.202Z,6.42
2017-05-30T16:03:17.545Z,6.42
2017-05-30T16:05:45.847Z,5.60
2017-05-30T16:08:14.172Z,4.92
2017-05-30T16:10:43.288Z,7.60
2017-05-30T16:13:11.615Z,5.32
2017-05-30T16:15:39.931Z,5.50
2017-05-30T16:18:08.271Z,4.86
2017-05-30T16:20:37.345Z,5.62
2017-05-30T16:23:05.648Z,4.46
2017-05-30T16:25:35.070Z,5.72
2017-05-30T16:28:03.377Z,8.22
2017-05-30T16:30:32.092Z,6.64
2017-05-30T16:33:00.430Z,5.48
2017-05-30T16:35:29.622Z,5.32
2017-05-30T16:37:57.931Z,4.62
2017-05-30T16:40:26.278Z,5.52
2017-05-30T16:42:55.356Z,4.74
2017-05-30T16:45:23.675Z,4.54
2017-05-30T16:47:52.806Z,5.60
2017-05-30T16:50:21.154Z,6.52
2017-05-30T16:52:50.327Z,5.44
2017-05-30T16:55:18.710Z,5.80
2017-05-30T16:57:47.013Z,6.30
2017-05-30T17:00:15.317Z,8.38
2017-05-30T17:02:43.662Z,5.64
2017-05-30T17:05:12.736Z,4.90
2017-05-30T17:07:41.061Z,5.28
2017-05-30T17:10:09.422Z,6.38
2017-05-30T17:12:37.734Z,6.68
2017-05-30T17:15:06.042Z,9.76
2017-05-30T17:17:34.392Z,8.34
2017-05-30T17:20:02.713Z,9.20
2017-05-30T17:22:31.010Z,7.62
2017-05-30T17:24:59.353Z,9.42
2017-05-30T17:27:27.657Z,6.06
2017-05-30T17:29:55.994Z,8.60
2017-05-30T17:32:24.317Z,5.54
2017-05-30T17:34:52.623Z,6.96
2017-05-30T17:37:20.972Z,5.86
2017-05-30T17:39:50.062Z,9.58
2017-05-30T17:42:18.369Z,9.20
2017-05-30T17:44:46.729Z,6.20
2017-05-30T17:47:15.041Z,6.78
2017-05-30T17:49:43.353Z,5.80
2017-05-30T17:52:11.715Z,5.00
2017-05-30T17:54:40.034Z,5.94
2017-05-30T17:57:08.357Z,6.74
2017-05-30T17:59:36.728Z,5.66
2017-05-30T18:02:05.041Z,6.96
2017-05-30T18:04:33.569Z,6.26
2017-05-30T18:07:01.911Z,4.64
2017-05-30T18:09:30.228Z,5.62
2017-05-30T18:11:58.531Z,5.40
2017-05-30T18:14:26.879Z,7.14
2017-05-30T18:16:55.181Z,7.20
2017-05-30T18:19:23.487Z,6.72
2017-05-30T18:21:51.825Z,7.24
2017-05-30T18:24:20.132Z,7.60
2017-05-30T18:26:48.481Z,7.96
2017-05-30T18:29:16.821Z,6.76
2017-05-30T18:31:45.160Z,7.80
2017-05-30T18:34:14.236Z,8.16
2017-05-30T18:36:43.370Z,8.00
2017-05-30T18:39:11.677Z,6.98
2017-05-30T18:41:39.986Z,6.40
2017-05-30T18:44:08.391Z,7.74
2017-05-30T18:46:36.717Z,8.84
2017-05-30T18:49:05.021Z,6.52
2017-05-30T18:51:33.362Z,5.80
2017-05-30T18:54:01.670Z,7.32
2017-05-30T18:56:29.982Z,9.08
2017-05-30T18:58:58.319Z,9.06
2017-05-30T19:01:26.628Z,9.74
2017-05-30T19:03:54.938Z,8.24
2017-05-30T19:06:23.280Z,9.46
2017-05-30T19:08:51.581Z,7.20
2017-05-30T19:11:19.895Z,7.48
2017-05-30T19:13:48.233Z,7.96
2017-05-30T19:16:16.538Z,7.14
2017-05-30T19:18:44.843Z,7.72
2017-05-30T19:21:14.041Z,7.80
2017-05-30T19:23:42.341Z,8.72
2017-05-30T19:26:10.653Z,7.30
2017-05-30T19:28:38.997Z,7.50
2017-05-30T19:31:07.307Z,7.68
2017-05-30T19:33:35.626Z,6.96
2017-05-30T19:36:03.973Z,7.90
2017-05-30T19:38:32.280Z,7.22
2017-05-30T19:41:00.589Z,7.26
2017-05-30T19:43:28.939Z,7.46
2017-05-30T19:45:57.268Z,7.28
2017-05-30T19:48:25.593Z,8.54
2017-05-30T19:50:53.961Z,8.00
2017-05-30T19:53:22.265Z,7.82
2017-05-30T19:55:50.574Z,8.20
2017-05-30T19:58:19.003Z,8.62
2017-05-30T20:00:47.314Z,9.42
2017-05-30T20:03:16.389Z,10.94
2017-05-30T20:05:44.725Z,7.82
2017-05-30T20:08:13.045Z,8.08
2017-05-30T20:10:41.345Z,7.20
2017-05-30T20:13:09.695Z,11.54
2017-05-30T20:15:38.132Z,10.10
2017-05-30T20:18:06.454Z,10.52
2017-05-30T20:20:35.094Z,9.20
2017-05-30T20:23:03.467Z,8.90
2017-05-30T20:25:31.782Z,10.62
2017-05-30T20:28:00.128Z,9.86
2017-05-30T20:30:28.444Z,9.84
2017-05-30T20:32:56.764Z,9.30
2017-05-30T20:35:25.105Z,9.02
2017-05-30T20:37:53.407Z,9.34
2017-05-30T20:40:21.718Z,9.78
2017-05-30T20:42:50.065Z,7.84
2017-05-30T20:45:18.370Z,11.08
2017-05-30T20:47:46.677Z,10.96
2017-05-30T20:50:15.026Z,9.12
2017-05-30T20:52:43.345Z,9.70
2017-05-30T20:55:11.663Z,10.24
2017-05-30T20:57:40.005Z,9.14
2017-05-30T21:00:08.314Z,10.20
2017-05-30T21:02:36.955Z,9.72
2017-05-30T21:05:05.323Z,7.64
2017-05-30T21:07:33.625Z,10.58
2017-05-30T21:10:01.933Z,7.36
2017-05-30T21:12:30.304Z,9.10
2017-05-30T21:14:58.617Z,8.64
2017-05-30T21:17:26.921Z,8.12
2017-05-30T21:19:55.256Z,7.06
2017-05-30T21:22:23.561Z,5.28
2017-05-30T21:24:51.870Z,6.40
2017-05-30T21:27:20.219Z,5.82
2017-05-30T21:29:48.521Z,6.26
2017-05-30T21:32:16.834Z,7.96
2017-05-30T21:34:45.173Z,6.06
2017-05-30T21:37:13.486Z,5.46
2017-05-30T21:39:41.795Z,4.98
2017-05-30T21:42:10.133Z,6.48
2017-05-30T21:44:38.529Z,4.50
2017-05-30T21:47:06.834Z,5.64
2017-05-30T21:49:35.542Z,5.32
2017-05-30T21:52:03.857Z,3.78
2017-05-30T21:54:32.154Z,4.52
2017-05-30T21:57:00.578Z,5.00
2017-05-30T21:59:28.880Z,4.90
2017-05-30T22:01:57.181Z,6.36
2017-05-30T22:04:25.633Z,5.22
2017-05-30T22:06:53.942Z,4.46
2017-05-30T22:09:22.243Z,4.78
2017-05-30T22:11:50.594Z,6.06
2017-05-30T22:14:19.663Z,5.18
2017-05-30T22:16:47.960Z,5.16
2017-05-30T22:19:16.301Z,4.58
2017-05-30T22:21:44.606Z,6.82
2017-05-30T22:24:12.907Z,4.22
2017-05-30T22:26:41.257Z,6.46
2017-05-30T22:29:09.562Z,5.30
2017-05-30T22:31:37.865Z,4.92
2017-05-30T22:34:06.974Z,4.22
2017-05-30T22:36:35.273Z,4.24
2017-05-30T22:39:03.578Z,5.54
2017-05-30T22:41:31.921Z,6.78
2017-05-30T22:44:00.243Z,6.56
2017-05-30T22:46:28.545Z,6.04
2017-05-30T22:48:57.149Z,5.76
2017-05-30T22:51:25.454Z,4.94
2017-05-30T22:53:53.760Z,6.42
2017-05-30T22:56:22.106Z,4.26
2017-05-30T22:58:50.405Z,7.24
2017-05-30T23:01:18.765Z,4.00
2017-05-30T23:03:47.128Z,7.34
2017-05-30T23:06:15.450Z,4.70
2017-05-30T23:08:44.540Z,8.26
2017-05-30T23:11:13.008Z,3.62
2017-05-30T23:13:41.313Z,5.18
2017-05-30T23:16:09.645Z,4.50
2017-05-30T23:18:38.013Z,3.98
2017-05-30T23:21:06.485Z,5.70
2017-05-30T23:23:34.888Z,6.86
2017-05-30T23:26:03.990Z,4.22
2017-05-30T23:28:33.064Z,3.42
2017-05-30T23:31:01.369Z,3.44
2017-05-30T23:33:29.712Z,4.72
2017-05-30T23:35:58.015Z,3.94
2017-05-30T23:38:26.313Z,3.80
2017-05-30T23:40:55.458Z,4.46
2017-05-30T23:43:23.752Z,5.44
2017-05-30T23:45:52.827Z,4.28
2017-05-30T23:48:21.197Z,4.90
2017-05-30T23:50:50.277Z,4.40
2017-05-30T23:53:18.582Z,3.84
2017-05-30T23:55:46.922Z,2.96
2017-05-30T23:58:15.225Z,5.38
